createdAt,value
2018-01-12T00:00:28.315Z,927.78
2018-01-12T00:02:00.133Z,927.75
2018-01-12T00:03:31.951Z,927.68
2018-01-12T00:05:03.772Z,927.68
2018-01-12T00:06:35.592Z,927.69
2018-01-12T00:08:07.405Z,927.66
2018-01-12T00:09:39.223Z,927.71
2018-01-12T00:11:11.241Z,927.71
2018-01-12T00:12:42.861Z,927.70
2018-01-12T00:14:14.677Z,927.74
2018-01-12T00:15:46.496Z,927.75
2018-01-12T00:17:18.316Z,927.79
2018-01-12T00:18:50.131Z,927.77
2018-01-12T00:20:21.949Z,927.81
2018-01-12T00:21:53.766Z,927.81
2018-01-12T00:23:25.582Z,927.84
2018-01-12T00:24:57.402Z,927.87
2018-01-12T00:26:29.218Z,927.87
2018-01-12T00:28:01.035Z,927.89
2018-01-12T00:29:32.856Z,927.88
2018-01-12T00:31:04.675Z,927.87
2018-01-12T00:32:36.492Z,927.86
2018-01-12T00:34:08.312Z,927.85
2018-01-12T00:35:40.124Z,927.91
2018-01-12T00:37:11.988Z,927.90
2018-01-12T00:38:43.763Z,927.91
2018-01-12T00:40:15.578Z,927.92
2018-01-12T00:41:47.400Z,927.91
2018-01-12T00:43:19.216Z,927.86
2018-01-12T00:44:51.031Z,927.85
2018-01-12T00:46:22.850Z,927.80
2018-01-12T00:47:54.667Z,927.78
2018-01-12T00:49:26.485Z,927.76
2018-01-12T00:50:58.310Z,927.72
2018-01-12T00:52:30.133Z,927.77
2018-01-12T00:54:01.938Z,927.80
2018-01-12T00:55:33.763Z,927.72
2018-01-12T00:57:05.601Z,927.78
2018-01-12T00:58:37.391Z,927.81
2018-01-12T01:00:09.209Z,927.82
2018-01-12T01:01:41.026Z,927.82
2018-01-12T01:03:12.844Z,927.80
2018-01-12T01:04:44.663Z,927.83
2018-01-12T01:06:16.479Z,927.81
2018-01-12T01:07:48.297Z,927.87
2018-01-12T01:09:20.118Z,927.85
2018-01-12T01:10:51.948Z,927.92
2018-01-12T01:12:23.750Z,927.90
2018-01-12T01:13:55.566Z,927.93
2018-01-12T01:15:27.389Z,927.93
2018-01-12T01:16:59.201Z,927.98
2018-01-12T01:18:31.018Z,927.97
2018-01-12T01:20:02.836Z,927.94
2018-01-12T01:21:34.718Z,927.91
2018-01-12T01:23:06.472Z,927.93
2018-01-12T01:24:38.388Z,927.93
2018-01-12T01:26:10.105Z,927.97
2018-01-12T01:27:41.923Z,928.00
2018-01-12T01:29:13.741Z,927.94
2018-01-12T01:30:45.558Z,927.94
2018-01-12T01:32:17.433Z,927.87
2018-01-12T01:33:49.193Z,927.89
2018-01-12T01:35:21.010Z,927.84
2018-01-12T01:36:52.827Z,927.77
2018-01-12T01:38:24.645Z,927.75
2018-01-12T01:39:56.463Z,927.72
2018-01-12T01:41:28.279Z,927.69
2018-01-12T01:43:00.098Z,927.65
2018-01-12T01:44:31.916Z,927.62
2018-01-12T01:46:03.731Z,927.53
2018-01-12T01:47:35.548Z,927.57
2018-01-12T01:49:07.381Z,927.54
2018-01-12T01:50:39.185Z,927.53
2018-01-12T01:52:11.000Z,927.50
2018-01-12T01:53:42.817Z,927.46
2018-01-12T01:55:14.635Z,927.44
2018-01-12T01:56:46.453Z,927.46
2018-01-12T01:58:18.269Z,927.40
2018-01-12T01:59:50.086Z,927.37
2018-01-12T02:01:21.914Z,927.41
2018-01-12T02:02:53.720Z,927.35
2018-01-12T02:04:25.639Z,927.32
2018-01-12T02:05:57.354Z,927.30
2018-01-12T02:07:29.172Z,927.31
2018-01-12T02:09:00.989Z,927.26
2018-01-12T02:10:32.805Z,927.30
2018-01-12T02:12:04.624Z,927.25
2018-01-12T02:13:36.440Z,927.19
2018-01-12T02:15:08.257Z,927.17
2018-01-12T02:16:40.076Z,927.13
2018-01-12T02:18:11.893Z,927.10
2018-01-12T02:19:43.709Z,927.03
2018-01-12T02:21:15.525Z,927.02
2018-01-12T02:22:47.343Z,927.01
2018-01-12T02:24:19.160Z,926.92
2018-01-12T02:25:50.978Z,926.90
2018-01-12T02:27:22.794Z,926.88
2018-01-12T02:28:54.658Z,926.84
2018-01-12T02:30:26.430Z,926.79
2018-01-12T02:31:58.247Z,926.79
2018-01-12T02:33:30.068Z,926.78
2018-01-12T02:35:01.886Z,926.73
2018-01-12T02:36:33.701Z,926.69
2018-01-12T02:38:05.516Z,926.67
2018-01-12T02:39:37.334Z,926.68
2018-01-12T02:41:09.150Z,926.57
2018-01-12T02:42:40.967Z,926.61
2018-01-12T02:44:12.785Z,926.58
2018-01-12T02:45:44.602Z,926.58
2018-01-12T02:47:16.421Z,926.53
2018-01-12T02:48:48.238Z,926.48
2018-01-12T02:50:20.054Z,926.49
2018-01-12T02:51:51.873Z,926.49
2018-01-12T02:53:23.689Z,926.44
2018-01-12T02:54:55.511Z,926.40
2018-01-12T02:56:27.324Z,926.36
2018-01-12T02:57:59.141Z,926.42
2018-01-12T02:59:30.957Z,926.41
2018-01-12T03:01:02.775Z,926.42
2018-01-12T03:02:34.592Z,926.40
2018-01-12T03:04:06.409Z,926.39
2018-01-12T03:05:38.228Z,926.30
2018-01-12T03:07:10.043Z,926.31
2018-01-12T03:08:41.861Z,926.26
2018-01-12T03:10:13.678Z,926.29
2018-01-12T03:11:45.495Z,926.30
2018-01-12T03:13:17.313Z,926.28
2018-01-12T03:14:49.283Z,926.26
2018-01-12T03:16:20.948Z,926.26
2018-01-12T03:17:52.766Z,926.30
2018-01-12T03:19:24.584Z,926.27
2018-01-12T03:20:56.401Z,926.28
2018-01-12T03:22:28.220Z,926.26
2018-01-12T03:24:00.041Z,926.25
2018-01-12T03:25:31.855Z,926.25
2018-01-12T03:27:03.673Z,926.20
2018-01-12T03:28:35.491Z,926.20
2018-01-12T03:30:07.310Z,926.12
2018-01-12T03:31:39.127Z,926.10
2018-01-12T03:33:10.994Z,926.07
2018-01-12T03:34:42.763Z,926.08
2018-01-12T03:36:14.581Z,926.03
2018-01-12T03:37:46.399Z,925.99
2018-01-12T03:39:18.216Z,925.96
2018-01-12T03:40:50.035Z,925.89
2018-01-12T03:42:21.853Z,925.88
2018-01-12T03:43:53.670Z,925.87
2018-01-12T03:45:25.638Z,925.83
2018-01-12T03:46:57.310Z,925.83
2018-01-12T03:48:29.127Z,925.78
2018-01-12T03:50:00.943Z,925.79
2018-01-12T03:51:32.761Z,925.75
2018-01-12T03:53:04.580Z,925.71
2018-01-12T03:54:36.400Z,925.69
2018-01-12T03:56:08.218Z,925.67
2018-01-12T03:57:40.034Z,925.60
2018-01-12T03:59:11.852Z,925.62
2018-01-12T04:00:43.670Z,925.55
2018-01-12T04:02:15.488Z,925.53
2018-01-12T04:03:47.305Z,925.48
2018-01-12T04:05:19.123Z,925.46
2018-01-12T04:06:50.940Z,925.49
2018-01-12T04:08:22.758Z,925.51
2018-01-12T04:09:54.576Z,925.49
2018-01-12T04:11:26.394Z,925.47
2018-01-12T04:12:58.212Z,925.49
2018-01-12T04:14:30.030Z,925.49
2018-01-12T04:16:01.997Z,925.42
2018-01-12T04:17:33.664Z,925.33
2018-01-12T04:19:05.482Z,925.30
2018-01-12T04:20:37.299Z,925.33
2018-01-12T04:22:09.118Z,925.26
2018-01-12T04:23:40.935Z,925.27
2018-01-12T04:25:12.752Z,925.35
2018-01-12T04:26:44.570Z,925.31
2018-01-12T04:28:16.396Z,925.33
2018-01-12T04:29:48.204Z,925.30
2018-01-12T04:31:20.031Z,925.31
2018-01-12T04:32:51.840Z,925.26
2018-01-12T04:34:23.657Z,925.28
2018-01-12T04:35:55.532Z,925.19
2018-01-12T04:37:27.293Z,925.21
2018-01-12T04:38:59.110Z,925.20
2018-01-12T04:40:30.929Z,925.17
2018-01-12T04:42:02.746Z,925.17
2018-01-12T04:43:34.563Z,925.10
2018-01-12T04:45:06.381Z,925.08
2018-01-12T04:46:38.198Z,925.08
2018-01-12T04:48:10.016Z,925.08
2018-01-12T04:49:41.833Z,925.05
2018-01-12T04:51:13.657Z,925.03
2018-01-12T04:52:45.469Z,925.02
2018-01-12T04:54:17.287Z,925.00
2018-01-12T04:55:49.104Z,924.95
2018-01-12T04:57:20.922Z,924.99
2018-01-12T04:58:52.741Z,924.91
2018-01-12T05:00:24.557Z,924.88
2018-01-12T05:01:56.376Z,924.85
2018-01-12T05:03:28.192Z,924.84
2018-01-12T05:05:00.013Z,924.82
2018-01-12T05:06:31.829Z,924.79
2018-01-12T05:08:03.646Z,924.74
2018-01-12T05:09:35.468Z,924.72
2018-01-12T05:11:07.280Z,924.69
2018-01-12T05:12:39.099Z,924.66
2018-01-12T05:14:10.915Z,924.62
2018-01-12T05:15:42.733Z,924.57
2018-01-12T05:17:14.550Z,924.53
2018-01-12T05:18:46.368Z,924.51
2018-01-12T05:20:18.184Z,924.50
2018-01-12T05:21:50.003Z,924.47
2018-01-12T05:23:22.069Z,924.47
2018-01-12T05:24:53.636Z,924.44
2018-01-12T05:26:25.453Z,924.45
2018-01-12T05:27:57.271Z,924.42
2018-01-12T05:29:29.090Z,924.41
2018-01-12T05:31:00.906Z,924.40
2018-01-12T05:32:32.723Z,924.39
2018-01-12T05:34:04.541Z,924.35
2018-01-12T05:35:36.358Z,924.28
2018-01-12T05:37:08.176Z,924.25
2018-01-12T05:38:39.992Z,924.22
2018-01-12T05:40:11.810Z,924.23
2018-01-12T05:41:43.643Z,924.21
2018-01-12T05:43:15.443Z,924.19
2018-01-12T05:44:47.261Z,924.12
2018-01-12T05:46:19.078Z,924.09
2018-01-12T05:47:50.894Z,924.11
2018-01-12T05:49:22.711Z,924.08
2018-01-12T05:50:54.529Z,924.06
2018-01-12T05:52:26.344Z,924.06
2018-01-12T05:53:58.411Z,924.07
2018-01-12T05:55:29.980Z,924.05
2018-01-12T05:57:01.795Z,924.08
2018-01-12T05:58:33.612Z,924.02
2018-01-12T06:00:05.429Z,924.03
2018-01-12T06:01:37.246Z,924.06
2018-01-12T06:03:09.065Z,924.03
2018-01-12T06:04:40.879Z,923.97
2018-01-12T06:06:12.696Z,923.98
2018-01-12T06:07:44.516Z,923.96
2018-01-12T06:09:16.330Z,923.91
2018-01-12T06:10:48.147Z,923.91
2018-01-12T06:12:19.966Z,923.89
2018-01-12T06:13:51.781Z,923.93
2018-01-12T06:15:23.598Z,923.91
2018-01-12T06:16:55.415Z,923.91
2018-01-12T06:18:27.232Z,923.89
2018-01-12T06:19:59.049Z,923.86
2018-01-12T06:21:30.865Z,923.87
2018-01-12T06:23:02.682Z,923.84
2018-01-12T06:24:34.499Z,923.88
2018-01-12T06:26:06.316Z,923.87
2018-01-12T06:27:38.132Z,923.91
2018-01-12T06:29:09.950Z,923.89
2018-01-12T06:30:41.767Z,923.87
2018-01-12T06:32:13.585Z,923.91
2018-01-12T06:33:45.401Z,923.89
2018-01-12T06:35:17.218Z,923.87
2018-01-12T06:36:49.035Z,923.93
2018-01-12T06:38:20.852Z,923.93
2018-01-12T06:39:52.669Z,923.94
2018-01-12T06:41:24.486Z,923.92
2018-01-12T06:42:56.302Z,923.96
2018-01-12T06:44:28.125Z,923.96
2018-01-12T06:45:59.939Z,923.96
2018-01-12T06:47:31.753Z,924.00
2018-01-12T06:49:03.571Z,924.03
2018-01-12T06:50:35.386Z,923.99
2018-01-12T06:52:07.203Z,923.98
2018-01-12T06:53:39.022Z,923.99
2018-01-12T06:55:10.853Z,923.96
2018-01-12T06:56:42.656Z,924.01
2018-01-12T06:58:14.470Z,923.98
2018-01-12T06:59:46.298Z,923.99
2018-01-12T07:01:18.106Z,924.01
2018-01-12T07:02:49.971Z,924.01
2018-01-12T07:04:21.737Z,923.96
2018-01-12T07:05:53.554Z,923.96
2018-01-12T07:07:25.372Z,923.97
2018-01-12T07:08:57.190Z,923.96
2018-01-12T07:10:29.007Z,923.93
2018-01-12T07:12:00.824Z,923.91
2018-01-12T07:13:32.636Z,923.96
2018-01-12T07:15:04.454Z,923.99
2018-01-12T07:16:36.276Z,924.01
2018-01-12T07:18:08.090Z,923.99
2018-01-12T07:19:40.054Z,924.02
2018-01-12T07:21:11.721Z,924.04
2018-01-12T07:22:43.540Z,924.04
2018-01-12T07:24:15.360Z,924.12
2018-01-12T07:25:47.177Z,924.12
2018-01-12T07:27:18.989Z,924.16
2018-01-12T07:28:50.808Z,924.17
2018-01-12T07:30:22.624Z,924.16
2018-01-12T07:31:54.444Z,924.19
2018-01-12T07:33:26.256Z,924.20
2018-01-12T07:34:58.077Z,924.21
2018-01-12T07:36:29.890Z,924.23
2018-01-12T07:38:01.707Z,924.21
2018-01-12T07:39:33.564Z,924.19
2018-01-12T07:41:05.343Z,924.21
2018-01-12T07:42:37.158Z,924.20
2018-01-12T07:44:09.053Z,924.21
2018-01-12T07:45:40.794Z,924.25
2018-01-12T07:47:12.609Z,924.24
2018-01-12T07:48:44.425Z,924.26
2018-01-12T07:50:16.395Z,924.28
2018-01-12T07:51:48.058Z,924.26
2018-01-12T07:53:19.875Z,924.33
2018-01-12T07:54:51.692Z,924.27
2018-01-12T07:56:23.759Z,924.37
2018-01-12T07:57:55.324Z,924.40
2018-01-12T07:59:27.141Z,924.41
2018-01-12T08:00:58.964Z,924.43
2018-01-12T08:02:30.775Z,924.45
2018-01-12T08:04:02.592Z,924.50
2018-01-12T08:05:34.408Z,924.53
2018-01-12T08:07:06.224Z,924.53
2018-01-12T08:08:38.040Z,924.52
2018-01-12T08:10:09.857Z,924.51
2018-01-12T08:11:41.674Z,924.57
2018-01-12T08:13:13.490Z,924.55
2018-01-12T08:14:45.307Z,924.48
2018-01-12T08:16:17.125Z,924.52
2018-01-12T08:17:48.943Z,924.54
2018-01-12T08:19:20.756Z,924.52
2018-01-12T08:20:52.573Z,924.55
2018-01-12T08:22:24.389Z,924.55
2018-01-12T08:23:56.207Z,924.56
2018-01-12T08:25:28.024Z,924.57
2018-01-12T08:26:59.840Z,924.60
2018-01-12T08:28:31.657Z,924.63
2018-01-12T08:30:03.473Z,924.61
2018-01-12T08:31:35.290Z,924.62
2018-01-12T08:33:07.106Z,924.62
2018-01-12T08:34:38.923Z,924.66
2018-01-12T08:36:10.740Z,924.67
2018-01-12T08:37:42.556Z,924.78
2018-01-12T08:39:14.372Z,924.75
2018-01-12T08:40:46.189Z,924.75
2018-01-12T08:42:18.006Z,924.79
2018-01-12T08:43:49.822Z,924.73
2018-01-12T08:45:21.639Z,924.80
2018-01-12T08:46:53.455Z,924.83
2018-01-12T08:48:25.339Z,924.86
2018-01-12T08:49:57.092Z,924.89
2018-01-12T08:51:28.908Z,924.84
2018-01-12T08:53:00.738Z,924.87
2018-01-12T08:54:32.540Z,924.90
2018-01-12T08:56:04.356Z,924.88
2018-01-12T08:57:36.173Z,924.93
2018-01-12T08:59:07.990Z,924.87
2018-01-12T09:00:39.838Z,924.92
2018-01-12T09:02:11.624Z,924.96
2018-01-12T09:03:43.441Z,924.97
2018-01-12T09:05:15.286Z,924.98
2018-01-12T09:06:47.076Z,924.99
2018-01-12T09:08:18.894Z,924.99
2018-01-12T09:09:50.709Z,925.00
2018-01-12T09:11:22.526Z,925.01
2018-01-12T09:12:54.343Z,925.08
2018-01-12T09:14:26.160Z,925.14
2018-01-12T09:15:57.978Z,925.14
2018-01-12T09:17:29.795Z,925.16
2018-01-12T09:19:01.615Z,925.16
2018-01-12T09:20:33.433Z,925.21
2018-01-12T09:22:05.278Z,925.31
2018-01-12T09:23:37.063Z,925.50
2018-01-12T09:25:08.912Z,925.17
2018-01-12T09:26:40.725Z,925.31
2018-01-12T09:28:12.516Z,925.25
2018-01-12T09:29:44.553Z,925.26
2018-01-12T09:31:16.402Z,925.26
2018-01-12T09:32:47.967Z,925.41
2018-01-12T09:34:19.784Z,925.37
2018-01-12T09:35:51.602Z,925.31
2018-01-12T09:37:23.420Z,925.29
2018-01-12T09:38:55.265Z,925.31
2018-01-12T09:40:27.056Z,925.30
2018-01-12T09:41:58.873Z,925.29
2018-01-12T09:43:30.717Z,925.35
2018-01-12T09:45:02.571Z,925.26
2018-01-12T09:46:34.364Z,925.36
2018-01-12T09:48:06.147Z,925.45
2018-01-12T09:49:37.964Z,925.34
2018-01-12T09:51:10.727Z,925.54
2018-01-12T09:52:41.600Z,925.45
2018-01-12T09:54:13.420Z,925.55
2018-01-12T09:55:45.239Z,925.52
2018-01-12T09:57:17.087Z,925.53
2018-01-12T09:58:48.875Z,925.63
2018-01-12T10:00:20.694Z,925.62
2018-01-12T10:01:52.538Z,925.61
2018-01-12T10:03:24.330Z,925.67
2018-01-12T10:04:56.160Z,925.69
2018-01-12T10:06:28.081Z,925.72
2018-01-12T10:07:59.788Z,925.75
2018-01-12T10:09:31.607Z,925.80
2018-01-12T10:11:03.425Z,925.79
2018-01-12T10:12:35.244Z,925.85
2018-01-12T10:14:07.078Z,925.78
2018-01-12T10:15:38.882Z,925.79
2018-01-12T10:17:10.851Z,925.77
2018-01-12T10:18:42.551Z,925.85
2018-01-12T10:20:14.339Z,925.79
2018-01-12T10:21:46.161Z,925.89
2018-01-12T10:23:18.012Z,925.94
2018-01-12T10:24:49.797Z,925.86
2018-01-12T10:26:21.616Z,925.84
2018-01-12T10:27:53.436Z,925.86
2018-01-12T10:29:25.261Z,925.87
2018-01-12T10:30:57.074Z,925.83
2018-01-12T10:32:28.908Z,925.85
2018-01-12T10:34:00.712Z,925.81
2018-01-12T10:35:32.531Z,925.78
2018-01-12T10:37:04.351Z,925.68
2018-01-12T10:38:36.488Z,926.10
2018-01-12T10:40:08.742Z,925.84
2018-01-12T10:41:39.907Z,925.85
2018-01-12T10:43:12.354Z,925.80
2018-01-12T10:44:43.453Z,925.90
2018-01-12T10:46:15.264Z,925.84
2018-01-12T10:47:47.381Z,925.86
2018-01-12T10:49:18.903Z,926.01
2018-01-12T10:50:50.740Z,925.96
2018-01-12T10:52:22.577Z,925.98
2018-01-12T10:53:54.359Z,926.01
2018-01-12T10:55:26.192Z,926.00
2018-01-12T10:56:58.097Z,925.95
2018-01-12T10:58:29.870Z,925.93
2018-01-12T11:00:01.637Z,925.88
2018-01-12T11:01:33.456Z,925.91
2018-01-12T11:03:05.328Z,925.99
2018-01-12T11:04:37.277Z,925.97
2018-01-12T11:06:08.964Z,925.96
2018-01-12T11:07:40.857Z,926.01
2018-01-12T11:09:12.604Z,926.05
2018-01-12T11:10:44.373Z,926.09
2018-01-12T11:12:16.209Z,926.08
2018-01-12T11:13:48.015Z,926.26
2018-01-12T11:15:19.833Z,926.18
2018-01-12T11:16:51.668Z,926.11
2018-01-12T11:18:23.496Z,926.21
2018-01-12T11:19:55.293Z,926.26
2018-01-12T11:21:27.113Z,926.22
2018-01-12T11:22:58.997Z,926.33
2018-01-12T11:24:30.751Z,926.36
2018-01-12T11:26:02.570Z,926.45
2018-01-12T11:27:34.391Z,926.47
2018-01-12T11:29:06.210Z,926.45
2018-01-12T11:30:38.032Z,926.56
2018-01-12T11:32:09.852Z,926.67
2018-01-12T11:33:41.672Z,926.68
2018-01-12T11:35:13.505Z,926.65
2018-01-12T11:36:45.325Z,926.71
2018-01-12T11:38:17.134Z,926.76
2018-01-12T11:39:48.954Z,926.71
2018-01-12T11:41:20.776Z,926.71
2018-01-12T11:42:52.619Z,926.72
2018-01-12T11:44:24.418Z,926.71
2018-01-12T11:45:56.239Z,926.72
2018-01-12T11:47:28.061Z,926.61
2018-01-12T11:48:59.912Z,926.62
2018-01-12T11:50:31.705Z,926.59
2018-01-12T11:52:03.558Z,926.76
2018-01-12T11:53:35.349Z,926.72
2018-01-12T11:55:07.172Z,926.87
2018-01-12T11:56:38.994Z,926.80
2018-01-12T11:58:10.835Z,926.96
2018-01-12T11:59:42.640Z,926.97
2018-01-12T12:01:14.463Z,926.89
2018-01-12T12:02:46.288Z,926.88
2018-01-12T12:04:18.111Z,926.94
2018-01-12T12:05:49.935Z,927.05
2018-01-12T12:07:21.859Z,926.82
2018-01-12T12:08:53.582Z,927.12
2018-01-12T12:10:25.406Z,926.93
2018-01-12T12:11:57.515Z,926.90
2018-01-12T12:13:29.107Z,926.92
2018-01-12T12:15:00.879Z,926.96
2018-01-12T12:16:32.701Z,926.99
2018-01-12T12:18:04.525Z,926.89
2018-01-12T12:19:36.348Z,926.59
2018-01-12T12:21:08.174Z,926.54
2018-01-12T12:23:32.402Z,926.59
2018-01-12T12:25:03.771Z,926.55
2018-01-12T12:26:35.443Z,926.59
2018-01-12T12:28:07.268Z,926.77
2018-01-12T12:29:39.091Z,926.58
2018-01-12T12:31:10.922Z,926.71
2018-01-12T12:32:42.741Z,926.82
2018-01-12T12:34:14.566Z,926.81
2018-01-12T12:35:46.392Z,926.86
2018-01-12T12:37:18.217Z,926.85
2018-01-12T12:38:50.044Z,926.83
2018-01-12T12:40:21.876Z,926.85
2018-01-12T12:41:53.693Z,926.84
2018-01-12T12:43:25.519Z,926.94
2018-01-12T12:44:57.344Z,926.91
2018-01-12T12:46:29.171Z,926.94
2018-01-12T12:48:00.995Z,926.94
2018-01-12T12:49:33.018Z,926.79
2018-01-12T12:51:04.642Z,926.93
2018-01-12T12:52:36.468Z,926.93
2018-01-12T12:54:08.290Z,926.79
2018-01-12T12:55:40.114Z,926.68
2018-01-12T12:57:11.937Z,926.74
2018-01-12T12:58:43.762Z,926.91
2018-01-12T13:00:15.584Z,926.98
2018-01-12T13:01:47.408Z,926.97
2018-01-12T13:03:19.232Z,926.68
2018-01-12T13:04:51.055Z,926.56
2018-01-12T13:06:22.892Z,926.74
2018-01-12T13:07:54.801Z,926.96
2018-01-12T13:09:26.525Z,926.83
2018-01-12T13:10:58.351Z,926.97
2018-01-12T13:12:30.215Z,927.05
2018-01-12T13:14:02.523Z,926.99
2018-01-12T13:15:33.816Z,927.07
2018-01-12T13:17:05.640Z,927.14
2018-01-12T13:18:37.474Z,927.17
2018-01-12T13:20:09.320Z,927.21
2018-01-12T13:21:41.113Z,926.99
2018-01-12T13:23:12.934Z,927.06
2018-01-12T13:24:44.758Z,927.17
2018-01-12T13:26:16.583Z,926.90
2018-01-12T13:27:48.406Z,926.95
2018-01-12T13:29:20.230Z,927.08
2018-01-12T13:30:52.054Z,927.06
2018-01-12T13:32:23.878Z,927.21
2018-01-12T13:33:55.738Z,927.04
2018-01-12T13:35:27.536Z,926.97
2018-01-12T13:36:59.352Z,927.07
2018-01-12T13:38:31.230Z,927.09
2018-01-12T13:40:03.001Z,926.96
2018-01-12T13:41:34.846Z,927.02
2018-01-12T13:43:07.056Z,926.78
2018-01-12T13:44:38.605Z,926.95
2018-01-12T13:46:10.309Z,926.99
2018-01-12T13:47:42.131Z,926.73
2018-01-12T13:49:13.968Z,926.77
2018-01-12T13:50:45.784Z,926.89
2018-01-12T13:52:17.614Z,926.95
2018-01-12T13:53:49.431Z,926.96
2018-01-12T13:55:21.256Z,927.01
2018-01-12T13:56:53.186Z,926.93
2018-01-12T13:58:24.908Z,926.85
2018-01-12T13:59:56.734Z,926.54
2018-01-12T14:01:28.560Z,926.76
2018-01-12T14:03:00.391Z,926.64
2018-01-12T14:04:32.215Z,926.55
2018-01-12T14:06:04.037Z,926.42
2018-01-12T14:07:35.863Z,926.46
2018-01-12T14:09:07.700Z,926.48
2018-01-12T14:10:39.521Z,926.50
2018-01-12T14:12:11.350Z,926.55
2018-01-12T14:13:43.186Z,926.37
2018-01-12T14:15:15.094Z,926.37
2018-01-12T14:16:46.819Z,926.32
2018-01-12T14:18:18.649Z,926.41
2018-01-12T14:19:50.471Z,926.29
2018-01-12T14:21:22.302Z,926.35
2018-01-12T14:22:54.125Z,926.60
2018-01-12T14:24:26.020Z,926.37
2018-01-12T14:25:57.784Z,926.46
2018-01-12T14:27:29.607Z,926.56
2018-01-12T14:29:01.434Z,926.68
2018-01-12T14:30:33.262Z,926.84
2018-01-12T14:32:05.090Z,926.84
2018-01-12T14:33:37.018Z,926.87
2018-01-12T14:35:08.746Z,926.78
2018-01-12T14:36:40.573Z,926.69
2018-01-12T14:38:12.401Z,926.68
2018-01-12T14:39:44.229Z,926.68
2018-01-12T14:41:16.059Z,926.66
2018-01-12T14:42:47.885Z,926.57
2018-01-12T14:44:19.719Z,926.62
2018-01-12T14:45:51.540Z,926.70
2018-01-12T14:47:23.367Z,926.62
2018-01-12T14:48:55.193Z,926.57
2018-01-12T14:50:27.020Z,926.46
2018-01-12T14:51:58.997Z,926.32
2018-01-12T14:53:30.672Z,926.43
2018-01-12T14:55:02.498Z,926.53
2018-01-12T14:56:34.324Z,926.61
2018-01-12T14:58:06.152Z,926.66
2018-01-12T14:59:37.976Z,926.69
2018-01-12T15:01:09.805Z,926.67
2018-01-12T15:02:41.628Z,926.53
2018-01-12T15:04:13.454Z,926.51
2018-01-12T15:05:45.745Z,926.47
2018-01-12T15:07:17.107Z,926.50
2018-01-12T15:08:48.934Z,926.67
2018-01-12T15:10:20.860Z,926.64
2018-01-12T15:11:52.587Z,926.46
2018-01-12T15:13:25.096Z,926.48
2018-01-12T15:14:56.247Z,926.47
2018-01-12T15:16:28.071Z,926.45
2018-01-12T15:17:59.898Z,926.39
2018-01-12T15:19:31.720Z,926.36
2018-01-12T15:21:03.546Z,926.27
2018-01-12T15:22:35.373Z,925.89
2018-01-12T15:24:07.198Z,926.12
2018-01-12T15:25:39.024Z,925.94
2018-01-12T15:27:10.849Z,925.94
2018-01-12T15:28:43.031Z,926.13
2018-01-12T15:30:14.500Z,926.20
2018-01-12T15:31:46.329Z,925.91
2018-01-12T15:33:18.153Z,926.08
2018-01-12T15:34:49.974Z,925.92
2018-01-12T15:36:21.799Z,926.22
2018-01-12T15:37:53.630Z,926.36
2018-01-12T15:39:25.449Z,926.38
2018-01-12T15:40:57.276Z,926.22
2018-01-12T15:42:29.098Z,926.13
2018-01-12T15:44:00.922Z,925.97
2018-01-12T15:45:32.749Z,925.74
2018-01-12T15:47:04.671Z,925.93
2018-01-12T15:48:36.396Z,925.98
2018-01-12T15:50:08.220Z,925.64
2018-01-12T15:51:40.044Z,925.73
2018-01-12T15:53:11.869Z,925.84
2018-01-12T15:54:43.693Z,925.71
2018-01-12T15:56:15.518Z,925.98
2018-01-12T15:57:47.342Z,925.99
2018-01-12T15:59:19.367Z,925.77
2018-01-12T16:00:50.991Z,925.89
2018-01-12T16:02:22.814Z,925.64
2018-01-12T16:03:54.639Z,925.67
2018-01-12T16:05:26.564Z,925.87
2018-01-12T16:06:58.287Z,925.86
2018-01-12T16:08:30.110Z,925.69
2018-01-12T16:10:01.935Z,925.82
2018-01-12T16:11:33.792Z,925.67
2018-01-12T16:13:05.583Z,925.62
2018-01-12T16:14:37.407Z,925.46
2018-01-12T16:16:09.230Z,925.51
2018-01-12T16:17:41.054Z,925.66
2018-01-12T16:19:12.885Z,925.72
2018-01-12T16:20:44.702Z,925.56
2018-01-12T16:22:16.525Z,925.69
2018-01-12T16:23:48.450Z,925.80
2018-01-12T16:25:20.179Z,925.90
2018-01-12T17:12:46.928Z,925.25
2018-01-12T17:14:18.553Z,925.14
2018-01-12T17:15:50.378Z,925.17
2018-01-12T17:17:22.203Z,925.12
2018-01-12T17:18:54.027Z,925.11
2018-01-12T17:20:25.852Z,925.17
2018-01-12T17:21:57.675Z,925.09
2018-01-12T17:23:29.501Z,925.23
2018-01-12T17:25:01.326Z,925.09
2018-01-12T17:26:33.150Z,925.06
2018-01-12T17:28:04.977Z,924.98
2018-01-12T17:29:36.804Z,925.18
2018-01-12T17:31:08.722Z,925.15
2018-01-12T17:32:40.476Z,925.10
2018-01-12T17:34:12.289Z,925.20
2018-01-12T17:35:44.112Z,925.12
2018-01-12T17:37:16.020Z,925.12
2018-01-12T17:38:47.747Z,925.18
2018-01-12T17:40:19.569Z,925.11
2018-01-12T17:41:51.394Z,925.17
2018-01-12T17:43:23.218Z,925.11
2018-01-12T17:44:55.043Z,925.09
2018-01-12T17:46:26.874Z,925.04
2018-01-12T17:47:58.693Z,924.92
2018-01-12T17:49:30.619Z,924.81
2018-01-12T17:51:02.345Z,924.94
2018-01-12T17:52:34.170Z,924.83
2018-01-12T17:54:05.995Z,924.82
2018-01-12T17:55:37.821Z,924.80
2018-01-12T17:57:09.656Z,924.69
2018-01-12T17:58:41.474Z,924.62
2018-01-12T18:00:13.300Z,924.42
2018-01-12T18:01:45.126Z,924.25
2018-01-12T18:03:16.959Z,924.10
2018-01-12T18:04:48.779Z,924.18
2018-01-12T18:06:20.606Z,924.38
2018-01-12T18:07:52.534Z,924.24
2018-01-12T18:09:24.259Z,923.98
2018-01-12T18:10:56.114Z,924.03
2018-01-12T18:12:27.923Z,924.35
2018-01-12T18:13:59.785Z,924.27
2018-01-12T18:15:31.565Z,923.92
2018-01-12T18:17:03.421Z,923.89
2018-01-12T18:18:35.231Z,924.07
2018-01-12T18:20:07.043Z,923.89
2018-01-12T18:21:38.876Z,923.76
2018-01-12T18:23:10.698Z,923.81
2018-01-12T18:24:42.518Z,923.75
2018-01-12T18:26:14.444Z,923.70
2018-01-12T18:27:46.170Z,923.64
2018-01-12T18:29:17.993Z,923.76
2018-01-12T18:30:49.817Z,923.88
2018-01-12T18:32:21.642Z,923.81
2018-01-12T18:33:53.466Z,923.73
2018-01-12T18:35:25.292Z,923.78
2018-01-12T18:36:57.116Z,923.98
2018-01-12T18:38:28.938Z,923.86
2018-01-12T18:40:00.762Z,923.93
2018-01-12T18:41:32.586Z,924.07
2018-01-12T18:43:04.411Z,923.95
2018-01-12T18:44:36.366Z,923.74
2018-01-12T18:46:08.077Z,923.69
2018-01-12T18:47:39.886Z,923.63
2018-01-12T18:49:11.743Z,923.64
2018-01-12T18:50:43.541Z,923.56
2018-01-12T18:52:15.363Z,923.48
2018-01-12T18:53:47.189Z,923.43
2018-01-12T18:55:19.015Z,923.40
2018-01-12T18:56:50.843Z,923.64
2018-01-12T18:58:22.667Z,923.57
2018-01-12T18:59:54.495Z,923.63
2018-01-12T19:01:26.322Z,923.59
2018-01-12T19:02:58.246Z,923.43
2018-01-12T19:04:29.973Z,923.37
2018-01-12T19:06:01.798Z,923.33
2018-01-12T19:07:33.623Z,923.21
2018-01-12T19:09:05.448Z,923.18
2018-01-12T19:10:37.273Z,923.20
2018-01-12T19:12:09.136Z,923.34
2018-01-12T19:13:40.923Z,923.36
2018-01-12T19:15:12.747Z,923.31
2018-01-12T19:16:44.572Z,923.37
2018-01-12T19:18:16.396Z,923.36
2018-01-12T19:19:48.224Z,923.49
2018-01-12T19:21:20.145Z,923.42
2018-01-12T19:22:51.869Z,923.38
2018-01-12T19:24:23.693Z,923.32
2018-01-12T19:25:55.516Z,923.36
2018-01-12T19:27:27.365Z,923.35
2018-01-12T19:28:59.164Z,923.35
2018-01-12T19:30:30.988Z,923.35
2018-01-12T19:32:02.813Z,923.23
2018-01-12T19:33:34.642Z,923.27
2018-01-12T19:35:06.462Z,923.22
2018-01-12T19:36:38.284Z,923.21
2018-01-12T19:38:10.107Z,923.17
2018-01-12T19:39:42.031Z,923.12
2018-01-12T19:41:13.754Z,923.15
2018-01-12T19:42:45.577Z,923.12
2018-01-12T19:44:17.401Z,923.13
2018-01-12T19:45:49.222Z,923.15
2018-01-12T19:47:21.046Z,923.06
2018-01-12T19:48:52.868Z,923.14
2018-01-12T19:50:24.691Z,923.00
2018-01-12T19:51:56.514Z,922.93